createdAt,value
2023-01-13T00:01:12.788Z,96766.94
2023-01-13T00:03:39.935Z,96767.22
2023-01-13T00:06:07.399Z,96771.03
2023-01-13T00:08:36.099Z,96768.81
2023-01-13T00:11:03.242Z,96764.28
2023-01-13T00:13:31.978Z,96762.22
2023-01-13T00:16:04.139Z,96762.44
2023-01-13T00:18:31.494Z,96767.03
2023-01-13T00:21:00.441Z,96762.31
2023-01-13T00:23:28.507Z,96761.06
2023-01-13T00:25:59.945Z,96763.44
2023-01-13T00:28:27.317Z,96756.94
2023-01-13T00:30:56.529Z,96744.25
2023-01-13T00:33:23.695Z,96744.03
2023-01-13T00:36:00.375Z,96732.28
2023-01-13T00:38:27.710Z,96734.97
2023-01-13T00:40:58.356Z,96721.22
2023-01-13T00:43:26.937Z,96719.78
2023-01-13T00:45:54.580Z,96715.16
2023-01-13T00:48:22.685Z,96724.81
2023-01-13T00:51:06.447Z,96724.31
2023-01-13T00:53:35.003Z,96728.06
2023-01-13T00:56:06.431Z,96717.34
2023-01-13T00:58:34.328Z,96721.22
2023-01-13T01:01:06.331Z,96712.47
2023-01-13T01:03:33.882Z,96708.66
2023-01-13T01:06:13.442Z,96706.50
2023-01-13T01:08:40.660Z,96712.97
2023-01-13T01:11:13.136Z,96713.78
2023-01-13T01:13:41.394Z,96724.63
2023-01-13T01:16:14.063Z,96714.78
2023-01-13T01:18:43.561Z,96712.75
2023-01-13T01:21:10.815Z,96717.53
2023-01-13T01:23:38.091Z,96698.91
2023-01-13T01:26:10.849Z,96700.13
2023-01-13T01:28:37.999Z,96697.22
2023-01-13T01:31:32.073Z,96699.47
2023-01-13T01:33:59.684Z,96707.03
2023-01-13T01:36:27.074Z,96710.75
2023-01-13T01:38:58.857Z,96702.81
2023-01-13T01:41:28.371Z,96701.78
2023-01-13T01:44:08.389Z,96698.03
2023-01-13T01:46:39.302Z,96690.88
2023-01-13T01:49:23.198Z,96691.22
2023-01-13T01:52:21.058Z,96697.03
2023-01-13T01:54:58.691Z,96691.34
2023-01-13T01:57:49.473Z,96690.81
2023-01-13T02:00:16.953Z,96690.25
2023-01-13T02:02:45.358Z,96693.88
2023-01-13T02:05:12.639Z,96681.50
2023-01-13T02:07:40.664Z,96676.78
2023-01-13T02:10:09.759Z,96672.78
2023-01-13T02:12:36.956Z,96675.25
2023-01-13T02:15:03.998Z,96659.84
2023-01-13T02:17:35.706Z,96662.84
2023-01-13T02:20:34.320Z,96662.13
2023-01-13T02:23:01.331Z,96655.38
2023-01-13T02:25:37.508Z,96651.56
2023-01-13T02:28:16.833Z,96646.13
2023-01-13T02:31:18.616Z,96653.72
2023-01-13T02:34:31.198Z,96656.34
2023-01-13T02:37:21.043Z,96657.69
2023-01-13T02:39:54.467Z,96658.91
2023-01-13T02:42:49.798Z,96655.53
2023-01-13T02:45:24.747Z,96649.88
2023-01-13T02:47:53.270Z,96649.47
2023-01-13T02:50:21.047Z,96658.66
2023-01-13T02:52:51.442Z,96659.56
2023-01-13T02:55:22.421Z,96658.50
2023-01-13T02:57:49.579Z,96655.25
2023-01-13T03:00:17.020Z,96653.06
2023-01-13T03:02:44.051Z,96653.16
2023-01-13T03:05:15.835Z,96654.31
2023-01-13T03:07:57.469Z,96655.22
2023-01-13T03:10:49.152Z,96642.56
2023-01-13T03:13:16.067Z,96641.53
2023-01-13T03:16:02.836Z,96631.63
2023-01-13T03:18:35.796Z,96627.13
2023-01-13T03:21:27.379Z,96637.41
2023-01-13T03:24:04.673Z,96627.09
2023-01-13T03:26:46.832Z,96629.97
2023-01-13T03:29:22.841Z,96628.22
2023-01-13T03:32:03.459Z,96623.22
2023-01-13T03:34:33.199Z,96627.63
2023-01-13T03:37:02.241Z,96631.53
2023-01-13T03:39:31.354Z,96627.13
2023-01-13T03:42:01.611Z,96616.22
2023-01-13T03:44:33.950Z,96616.47
2023-01-13T03:47:49.330Z,96610.38
2023-01-13T03:50:24.539Z,96606.28
2023-01-13T03:52:55.182Z,96606.88
2023-01-13T03:55:23.517Z,96605.53
2023-01-13T03:58:26.615Z,96610.19
2023-01-13T04:01:04.361Z,96599.97
2023-01-13T04:04:09.764Z,96592.03
2023-01-13T04:07:00.582Z,96595.59
2023-01-13T04:09:34.626Z,96598.75
2023-01-13T04:12:51.242Z,96605.59
2023-01-13T04:15:19.218Z,96601.88
2023-01-13T04:17:46.200Z,96597.44
2023-01-13T04:20:13.549Z,96600.78
2023-01-13T04:22:40.485Z,96595.22
2023-01-13T04:25:08.132Z,96589.34
2023-01-13T04:27:35.339Z,96592.97
2023-01-13T04:30:02.281Z,96593.84
2023-01-13T04:32:29.260Z,96582.97
2023-01-13T04:34:56.191Z,96583.75
2023-01-13T04:37:23.116Z,96581.38
2023-01-13T04:39:50.060Z,96586.16
2023-01-13T04:42:16.953Z,96572.59
2023-01-13T04:44:43.915Z,96584.25
2023-01-13T04:47:10.798Z,96587.75
2023-01-13T04:49:37.746Z,96585.63
2023-01-13T04:52:07.127Z,96588.28
2023-01-13T04:54:34.073Z,96589.88
2023-01-13T04:57:01.038Z,96594.94
2023-01-13T04:59:27.929Z,96589.06
2023-01-13T05:01:54.943Z,96598.94
2023-01-13T05:04:21.926Z,96596.66
2023-01-13T05:06:48.913Z,96594.94
2023-01-13T05:09:15.873Z,96593.03
2023-01-13T05:12:01.587Z,96587.50
2023-01-13T05:14:46.943Z,96592.00
2023-01-13T05:17:18.994Z,96600.78
2023-01-13T05:19:45.992Z,96601.53
2023-01-13T05:22:31.834Z,96595.69
2023-01-13T05:25:17.696Z,96593.88
2023-01-13T05:27:44.702Z,96597.28
2023-01-13T05:30:12.057Z,96603.72
2023-01-13T05:32:39.032Z,96597.06
2023-01-13T05:35:06.041Z,96590.09
2023-01-13T05:37:33.099Z,96596.91
2023-01-13T05:40:18.553Z,96594.94
2023-01-13T05:43:04.276Z,96596.78
2023-01-13T05:45:31.631Z,96587.81
2023-01-13T05:47:58.636Z,96590.84
2023-01-13T05:50:25.556Z,96584.03
2023-01-13T05:52:52.561Z,96587.22
2023-01-13T05:55:19.448Z,96584.03
2023-01-13T05:57:46.442Z,96588.84
2023-01-13T06:00:14.674Z,96593.59
2023-01-13T06:02:41.700Z,96593.06
2023-01-13T06:05:08.978Z,96594.94
2023-01-13T06:07:35.926Z,96590.91
2023-01-13T06:10:02.870Z,96588.03
2023-01-13T06:12:29.859Z,96590.06
2023-01-13T06:14:56.772Z,96584.44
2023-01-13T06:17:23.754Z,96592.44
2023-01-13T06:19:51.195Z,96582.00
2023-01-13T06:22:26.847Z,96588.09
2023-01-13T06:24:54.137Z,96590.38
2023-01-13T06:27:21.549Z,96587.94
2023-01-13T06:29:48.599Z,96578.28
2023-01-13T06:32:16.886Z,96597.78
2023-01-13T06:34:45.434Z,96587.22
2023-01-13T06:37:13.025Z,96585.53
2023-01-13T06:39:40.693Z,96590.66
2023-01-13T06:42:26.195Z,96589.88
2023-01-13T06:44:53.282Z,96597.25
2023-01-13T06:47:22.382Z,96594.63
2023-01-13T06:49:49.424Z,96597.75
2023-01-13T06:52:16.433Z,96602.75
2023-01-13T06:54:43.416Z,96602.25
2023-01-13T06:57:10.352Z,96598.41
2023-01-13T06:59:37.359Z,96597.47
2023-01-13T07:02:04.348Z,96597.88
2023-01-13T07:04:31.610Z,96601.47
2023-01-13T07:06:59.765Z,96603.69
2023-01-13T07:09:26.775Z,96601.03
2023-01-13T07:11:53.983Z,96592.91
2023-01-13T07:14:39.791Z,96589.63
2023-01-13T07:17:06.792Z,96590.13
2023-01-13T07:19:33.688Z,96599.75
2023-01-13T07:22:00.656Z,96584.41
2023-01-13T07:24:27.875Z,96588.78
2023-01-13T07:26:54.873Z,96586.47
2023-01-13T07:29:21.905Z,96590.38
2023-01-13T07:31:50.127Z,96592.47
2023-01-13T07:34:17.603Z,96593.06
2023-01-13T07:36:44.598Z,96594.41
2023-01-13T07:39:11.510Z,96604.50
2023-01-13T07:41:57.063Z,96600.00
2023-01-13T07:44:24.057Z,96595.56
2023-01-13T07:46:50.959Z,96584.25
2023-01-13T07:49:17.999Z,96589.50
2023-01-13T07:51:44.971Z,96588.00
2023-01-13T07:54:13.033Z,96577.91
2023-01-13T07:56:39.984Z,96581.09
2023-01-13T07:59:06.930Z,96592.47
2023-01-13T08:01:34.034Z,96589.53
2023-01-13T08:04:01.021Z,96576.31
2023-01-13T08:06:28.133Z,96582.19
2023-01-13T08:08:55.061Z,96589.34
2023-01-13T08:11:23.583Z,96597.34
2023-01-13T08:13:50.764Z,96593.03
2023-01-13T08:16:17.784Z,96607.41
2023-01-13T08:18:44.983Z,96597.31
2023-01-13T08:21:13.372Z,96611.16
2023-01-13T08:23:44.275Z,96618.44
2023-01-13T08:26:17.263Z,96627.97
2023-01-13T08:28:44.862Z,96624.72
2023-01-13T08:31:13.468Z,96631.66
2023-01-13T08:33:40.707Z,96637.78
2023-01-13T08:36:09.179Z,96628.13
2023-01-13T08:38:36.340Z,96636.94
2023-01-13T08:41:15.295Z,96634.28
2023-01-13T08:43:42.304Z,96636.16
2023-01-13T08:46:09.386Z,96629.25
2023-01-13T08:48:37.172Z,96626.59
2023-01-13T08:51:08.126Z,96629.75
2023-01-13T08:53:35.230Z,96629.28
2023-01-13T08:56:02.201Z,96628.22
2023-01-13T08:58:29.496Z,96633.47
2023-01-13T09:00:56.562Z,96626.06
2023-01-13T09:03:23.617Z,96623.91
2023-01-13T09:05:50.573Z,96625.28
2023-01-13T09:08:17.487Z,96630.34
2023-01-13T09:10:44.750Z,96631.34
2023-01-13T09:13:13.196Z,96628.63
2023-01-13T09:15:45.207Z,96639.31
2023-01-13T09:18:12.571Z,96639.34
2023-01-13T09:20:39.550Z,96637.50
2023-01-13T09:23:09.705Z,96641.75
2023-01-13T09:25:37.174Z,96644.09
2023-01-13T09:28:08.722Z,96635.59
2023-01-13T09:30:37.026Z,96645.78
2023-01-13T09:33:22.664Z,96643.34
2023-01-13T09:35:49.696Z,96638.28
2023-01-13T09:38:16.770Z,96647.59
2023-01-13T09:40:44.077Z,96649.63
2023-01-13T09:43:44.825Z,96641.53
2023-01-13T09:46:39.571Z,96641.78
2023-01-13T09:49:09.540Z,96637.13
2023-01-13T09:51:39.904Z,96643.09
2023-01-13T09:54:12.448Z,96640.16
2023-01-13T09:56:39.387Z,96632.44
2023-01-13T09:59:11.262Z,96642.78
2023-01-13T10:01:59.508Z,96634.50
2023-01-13T10:04:26.548Z,96608.91
2023-01-13T10:06:56.426Z,96614.56
2023-01-13T10:09:33.319Z,96612.97
2023-01-13T10:12:18.788Z,96615.69
2023-01-13T10:14:53.472Z,96608.50
2023-01-13T10:17:36.688Z,96602.66
2023-01-13T10:20:21.313Z,96600.50
2023-01-13T10:23:01.917Z,96612.50
2023-01-13T10:25:46.202Z,96609.28
2023-01-13T10:28:16.606Z,96601.28
2023-01-13T10:30:46.500Z,96604.63
2023-01-13T10:33:20.867Z,96606.66
2023-01-13T10:36:01.326Z,96608.50
2023-01-13T10:38:41.540Z,96607.66
2023-01-13T10:41:20.553Z,96595.53
2023-01-13T10:44:16.056Z,96600.19
2023-01-13T10:46:54.062Z,96596.69
2023-01-13T10:49:38.628Z,96591.50
2023-01-13T10:52:26.461Z,96575.34
2023-01-13T10:54:53.939Z,96581.63
2023-01-13T10:57:23.065Z,96589.88
2023-01-13T10:59:51.131Z,96579.34
2023-01-13T11:02:27.181Z,96581.34
2023-01-13T11:04:54.295Z,96567.72
2023-01-13T11:07:26.828Z,96566.59
2023-01-13T11:10:05.943Z,96566.81
2023-01-13T11:12:54.611Z,96560.41
2023-01-13T11:15:23.825Z,96562.50
2023-01-13T11:18:32.371Z,96564.09
2023-01-13T11:20:59.152Z,96562.00
2023-01-13T11:23:37.237Z,96564.84
2023-01-13T11:26:06.996Z,96547.53
2023-01-13T11:28:36.046Z,96567.75
2023-01-13T11:31:17.633Z,96559.72
2023-01-13T11:33:48.764Z,96565.69
2023-01-13T11:36:20.858Z,96561.13
2023-01-13T11:38:50.766Z,96556.75
2023-01-13T11:41:41.032Z,96551.13
2023-01-13T11:44:18.581Z,96558.59
2023-01-13T11:46:46.186Z,96567.84
2023-01-13T11:49:26.795Z,96563.53
2023-01-13T11:52:32.861Z,96560.63
2023-01-13T11:55:02.430Z,96565.41
2023-01-13T11:58:08.561Z,96552.69
2023-01-13T12:01:10.890Z,96572.56
2023-01-13T12:03:48.634Z,96574.25
2023-01-13T12:06:24.279Z,96561.44
2023-01-13T12:09:09.941Z,96559.03
2023-01-13T12:12:19.936Z,96572.06
2023-01-13T12:15:14.930Z,96564.97
2023-01-13T12:17:54.201Z,96553.63
2023-01-13T12:20:45.736Z,96580.97
2023-01-13T12:23:57.130Z,96594.97
2023-01-13T12:26:24.244Z,96606.84
2023-01-13T12:29:19.105Z,96617.63
2023-01-13T12:31:49.185Z,96617.38
2023-01-13T12:34:50.024Z,96618.31
2023-01-13T12:37:23.444Z,96623.72
2023-01-13T12:40:02.762Z,96627.16
2023-01-13T12:43:07.565Z,96644.75
2023-01-13T12:45:34.562Z,96633.53
2023-01-13T12:48:01.752Z,96642.50
2023-01-13T12:50:29.283Z,96627.09
2023-01-13T12:52:57.441Z,96636.22
2023-01-13T12:55:25.587Z,96631.72
2023-01-13T12:58:04.618Z,96633.50
2023-01-13T13:00:56.989Z,96630.13
2023-01-13T13:03:34.201Z,96628.28
2023-01-13T13:06:07.410Z,96631.06
2023-01-13T13:09:03.332Z,96627.47
2023-01-13T13:11:58.103Z,96635.03
2023-01-13T13:14:37.381Z,96632.94
2023-01-13T13:17:05.375Z,96638.28
2023-01-13T13:19:32.296Z,96631.13
2023-01-13T13:22:19.136Z,96623.94
2023-01-13T13:24:48.993Z,96636.16
2023-01-13T13:27:20.337Z,96655.59
2023-01-13T13:30:02.243Z,96677.66
2023-01-13T13:32:53.906Z,96708.84
2023-01-13T13:35:20.721Z,96700.31
2023-01-13T13:38:22.513Z,96693.94
2023-01-13T13:41:08.453Z,96688.25
2023-01-13T13:44:01.579Z,96700.81
2023-01-13T13:46:47.921Z,96706.44
2023-01-13T13:49:21.505Z,96725.44
2023-01-13T13:52:22.371Z,96725.47
2023-01-13T13:54:52.107Z,96730.25
2023-01-13T13:57:39.873Z,96743.59
2023-01-13T14:00:18.100Z,96741.03
2023-01-13T14:02:56.755Z,96742.44
2023-01-13T14:05:25.571Z,96753.16
2023-01-13T14:08:15.177Z,96770.16
2023-01-13T14:10:43.405Z,96783.78
2023-01-13T14:13:30.336Z,96788.03
2023-01-13T14:16:04.211Z,96787.81
2023-01-13T14:18:32.786Z,96776.47
2023-01-13T14:21:00.506Z,96784.25
2023-01-13T14:23:29.635Z,96773.78
2023-01-13T14:26:01.873Z,96778.16
2023-01-13T14:28:32.516Z,96795.56
2023-01-13T14:30:59.780Z,96790.66
2023-01-13T14:33:46.294Z,96800.28
2023-01-13T14:36:17.616Z,96797.19
2023-01-13T14:39:03.764Z,96813.81
2023-01-13T14:42:00.049Z,96826.25
2023-01-13T14:44:35.256Z,96822.38
2023-01-13T14:47:04.376Z,96794.91
2023-01-13T14:49:38.292Z,96778.63
2023-01-13T14:52:22.507Z,96772.03
2023-01-13T14:54:58.437Z,96789.13
2023-01-13T14:57:27.789Z,96781.22
2023-01-13T15:00:13.816Z,96779.44
2023-01-13T15:02:53.519Z,96798.81
2023-01-13T15:05:22.492Z,96808.66
2023-01-13T15:08:14.057Z,96813.94
2023-01-13T15:11:01.005Z,96813.22
2023-01-13T15:13:41.180Z,96819.59
2023-01-13T15:16:21.124Z,96833.00
2023-01-13T15:18:48.273Z,96846.88
2023-01-13T15:21:15.870Z,96835.94
2023-01-13T15:23:43.229Z,96847.16
2023-01-13T15:26:23.866Z,96850.81
2023-01-13T15:28:51.563Z,96844.53
2023-01-13T15:31:18.979Z,96848.72
2023-01-13T15:33:45.959Z,96849.63
2023-01-13T15:36:29.221Z,96858.13
2023-01-13T15:38:56.371Z,96870.53
2023-01-13T15:41:41.797Z,96858.69
2023-01-13T15:44:29.739Z,96876.28
2023-01-13T15:46:56.937Z,96876.72
2023-01-13T15:49:27.899Z,96879.63
2023-01-13T15:51:54.936Z,96881.59
2023-01-13T15:54:24.602Z,96880.66
2023-01-13T15:56:51.622Z,96892.75
2023-01-13T15:59:21.029Z,96888.75
2023-01-13T16:01:48.088Z,96899.53
2023-01-13T16:04:15.164Z,96902.63
2023-01-13T16:06:42.170Z,96889.97
2023-01-13T16:09:12.822Z,96900.31
2023-01-13T16:11:39.814Z,96904.47
2023-01-13T16:14:06.755Z,96915.50
2023-01-13T16:16:33.749Z,96918.25
2023-01-13T16:19:00.854Z,96927.69
2023-01-13T16:21:27.825Z,96923.44
2023-01-13T16:23:54.913Z,96933.91
2023-01-13T16:26:23.700Z,96946.44
2023-01-13T16:28:51.868Z,96939.41
2023-01-13T16:31:30.784Z,96947.06
2023-01-13T16:33:58.738Z,96951.09
2023-01-13T16:36:25.725Z,96950.88
2023-01-13T16:38:53.126Z,96960.09
2023-01-13T16:41:20.736Z,96960.97
2023-01-13T16:43:48.173Z,96968.59
2023-01-13T16:46:22.739Z,96955.81
2023-01-13T16:48:49.923Z,96959.81
2023-01-13T16:51:16.827Z,96963.63
2023-01-13T16:53:43.765Z,96974.69
2023-01-13T16:56:35.393Z,96981.16
2023-01-13T16:59:14.164Z,96973.66
2023-01-13T17:01:42.107Z,96978.72
2023-01-13T17:04:14.964Z,96980.00
2023-01-13T17:06:55.767Z,96982.97
2023-01-13T17:09:25.162Z,96989.81
2023-01-13T17:11:52.212Z,96990.72
2023-01-13T17:14:21.816Z,96992.28
2023-01-13T17:16:52.357Z,97005.41
2023-01-13T17:19:20.496Z,97002.22
2023-01-13T17:21:47.782Z,97012.47
2023-01-13T17:24:14.793Z,97015.38
2023-01-13T17:26:44.257Z,97010.50
2023-01-13T17:29:16.102Z,97011.13
2023-01-13T17:31:43.265Z,97012.41
2023-01-13T17:34:10.652Z,97015.22
2023-01-13T17:36:37.702Z,97009.31
2023-01-13T17:39:04.874Z,97010.44
2023-01-13T17:41:31.759Z,97017.84
2023-01-13T17:43:58.774Z,97027.84
2023-01-13T17:46:25.704Z,97032.09
2023-01-13T17:48:53.827Z,97039.81
2023-01-13T17:51:22.562Z,97028.19
2023-01-13T17:53:49.645Z,97035.63
2023-01-13T17:56:17.179Z,97040.38
2023-01-13T17:58:45.544Z,97050.63
2023-01-13T18:01:20.071Z,97055.66
2023-01-13T18:03:47.295Z,97055.06
2023-01-13T18:06:18.999Z,97054.38
2023-01-13T18:08:46.227Z,97063.59
2023-01-13T18:11:14.078Z,97064.50
2023-01-13T18:13:43.954Z,97064.66
2023-01-13T18:16:11.409Z,97067.78
2023-01-13T18:18:39.346Z,97070.94
2023-01-13T18:21:25.313Z,97074.75
2023-01-13T18:24:11.031Z,97064.34
2023-01-13T18:26:56.576Z,97068.00
2023-01-13T18:29:23.518Z,97065.19
2023-01-13T18:31:50.631Z,97068.31
2023-01-13T18:34:17.629Z,97065.22
2023-01-13T18:36:44.675Z,97069.97
2023-01-13T18:39:12.075Z,97068.88
2023-01-13T18:41:57.790Z,97075.44
2023-01-13T18:44:24.772Z,97076.72
2023-01-13T18:46:51.758Z,97077.03
2023-01-13T18:49:18.734Z,97080.09
2023-01-13T18:51:45.767Z,97072.75
2023-01-13T18:54:12.707Z,97077.63
2023-01-13T18:56:39.755Z,97086.78
2023-01-13T18:59:06.750Z,97098.06
2023-01-13T19:01:33.901Z,97093.31
2023-01-13T19:04:03.233Z,97081.00
2023-01-13T19:06:33.945Z,97082.47
2023-01-13T19:09:01.932Z,97081.13
2023-01-13T19:11:30.632Z,97080.56
2023-01-13T19:13:57.791Z,97079.81
2023-01-13T19:16:24.893Z,97089.03
2023-01-13T19:18:51.876Z,97093.41
2023-01-13T19:21:18.869Z,97109.56
2023-01-13T19:23:46.032Z,97110.63
2023-01-13T19:26:13.208Z,97104.34
2023-01-13T19:28:40.597Z,97105.34
2023-01-13T19:31:09.491Z,97115.94
2023-01-13T19:33:38.795Z,97117.31
2023-01-13T19:36:06.898Z,97119.38
2023-01-13T19:38:33.877Z,97117.22
2023-01-13T19:41:02.534Z,97122.72
2023-01-13T19:43:48.351Z,97135.13
2023-01-13T19:46:15.299Z,97137.59
2023-01-13T19:48:43.150Z,97134.00
2023-01-13T19:51:10.527Z,97136.16
2023-01-13T19:53:37.499Z,97139.13
2023-01-13T19:56:04.631Z,97145.94
2023-01-13T19:58:31.627Z,97148.31
2023-01-13T20:00:58.663Z,97151.09
2023-01-13T20:03:26.960Z,97157.25
2023-01-13T20:05:54.072Z,97164.94
2023-01-13T20:08:22.150Z,97161.88
2023-01-13T20:10:49.226Z,97171.72
2023-01-13T20:13:16.435Z,97162.91
2023-01-13T20:15:44.008Z,97158.47
2023-01-13T20:18:11.191Z,97170.59
2023-01-13T20:20:38.105Z,97171.69
2023-01-13T20:23:05.081Z,97171.81
2023-01-13T20:25:32.083Z,97176.78
2023-01-13T20:28:01.230Z,97182.44
2023-01-13T20:30:28.218Z,97186.38
2023-01-13T20:32:55.211Z,97197.38
2023-01-13T20:35:22.266Z,97192.44
2023-01-13T20:37:49.164Z,97192.03
2023-01-13T20:40:16.443Z,97192.50
2023-01-13T20:42:45.237Z,97195.78
2023-01-13T20:45:21.630Z,97205.41
2023-01-13T20:47:48.592Z,97207.56
2023-01-13T20:50:15.865Z,97207.50
2023-01-13T20:52:42.999Z,97210.38
2023-01-13T20:55:10.186Z,97221.00
2023-01-13T20:57:37.130Z,97224.84
2023-01-13T21:00:04.712Z,97222.81
2023-01-13T21:02:31.721Z,97228.06
2023-01-13T21:04:58.716Z,97226.97
2023-01-13T21:07:25.668Z,97230.47
2023-01-13T21:09:52.708Z,97227.66
2023-01-13T21:12:45.792Z,97232.91
2023-01-13T21:15:20.165Z,97227.13
2023-01-13T21:18:06.684Z,97223.06
2023-01-13T21:20:34.510Z,97228.72
2023-01-13T21:23:01.881Z,97230.53
2023-01-13T21:25:29.389Z,97231.16
2023-01-13T21:27:59.980Z,97236.22
2023-01-13T21:30:26.939Z,97234.25
2023-01-13T21:32:53.899Z,97237.81
2023-01-13T21:35:20.875Z,97230.16
2023-01-13T21:37:47.985Z,97240.03
2023-01-13T21:40:15.110Z,97252.06
2023-01-13T21:43:00.821Z,97250.72
2023-01-13T21:45:46.409Z,97249.38
2023-01-13T21:48:13.434Z,97248.53
2023-01-13T21:50:40.530Z,97255.69
2023-01-13T21:53:08.174Z,97255.94
2023-01-13T21:55:36.711Z,97260.66
2023-01-13T21:58:10.674Z,97259.59
2023-01-13T22:00:38.055Z,97267.81
2023-01-13T22:03:06.223Z,97272.38
2023-01-13T22:05:33.363Z,97270.81
2023-01-13T22:08:00.692Z,97270.94
2023-01-13T22:10:29.891Z,97274.84
2023-01-13T22:12:58.525Z,97281.41
2023-01-13T22:15:27.127Z,97291.53
2023-01-13T22:17:54.599Z,97307.53
2023-01-13T22:20:21.636Z,97309.06
2023-01-13T22:22:48.895Z,97311.47
2023-01-13T22:25:16.335Z,97312.41
2023-01-13T22:27:44.807Z,97311.56
2023-01-13T22:30:18.185Z,97325.63
2023-01-13T22:32:45.728Z,97317.44
2023-01-13T22:35:12.995Z,97326.50
2023-01-13T22:37:40.165Z,97314.38
2023-01-13T22:40:08.263Z,97321.47
2023-01-13T22:42:40.961Z,97327.34
2023-01-13T22:45:10.176Z,97318.50
2023-01-13T22:47:37.175Z,97323.41
2023-01-13T22:50:05.162Z,97328.28
2023-01-13T22:52:33.557Z,97325.00
2023-01-13T22:55:00.991Z,97331.13
2023-01-13T22:57:36.054Z,97336.38
2023-01-13T23:00:10.447Z,97334.28
2023-01-13T23:02:38.397Z,97344.28
2023-01-13T23:05:05.693Z,97354.31
2023-01-13T23:07:32.636Z,97355.00
2023-01-13T23:10:00.025Z,97358.78
2023-01-13T23:12:26.929Z,97350.38
2023-01-13T23:14:54.622Z,97359.81
2023-01-13T23:17:21.555Z,97358.56
2023-01-13T23:19:48.498Z,97347.75
2023-01-13T23:22:15.658Z,97355.25
2023-01-13T23:24:42.650Z,97352.56
2023-01-13T23:27:09.555Z,97351.81
2023-01-13T23:29:36.757Z,97359.75
2023-01-13T23:32:03.831Z,97362.53
2023-01-13T23:34:30.776Z,97358.56
2023-01-13T23:36:57.781Z,97351.31
2023-01-13T23:39:24.790Z,97349.00
2023-01-13T23:41:51.773Z,97351.22
2023-01-13T23:44:18.716Z,97346.34
2023-01-13T23:46:45.696Z,97346.28
2023-01-13T23:49:12.659Z,97348.03
2023-01-13T23:51:39.856Z,97351.44
2023-01-13T23:54:06.788Z,97353.38
2023-01-13T23:56:35.071Z,97358.38
2023-01-13T23:59:01.996Z,97346.19
